createdAt,value
2023-03-05T00:02:24.564Z,8.60
2023-03-05T00:04:51.319Z,8.58
2023-03-05T00:07:17.944Z,8.56
2023-03-05T00:09:44.611Z,8.52
2023-03-05T00:12:11.288Z,8.48
2023-03-05T00:14:38.010Z,8.45
2023-03-05T00:17:04.719Z,8.44
2023-03-05T00:19:31.317Z,8.44
2023-03-05T00:21:58.072Z,8.43
2023-03-05T00:24:24.657Z,8.44
2023-03-05T00:26:51.378Z,8.41
2023-03-05T00:29:19.022Z,8.41
2023-03-05T00:31:46.305Z,8.41
2023-03-05T00:34:15.357Z,8.40
2023-03-05T00:36:43.956Z,8.40
2023-03-05T00:39:12.240Z,8.41
2023-03-05T00:41:39.264Z,8.42
2023-03-05T00:44:06.276Z,8.42
2023-03-05T00:46:33.262Z,8.43
2023-03-05T00:48:59.966Z,8.44
2023-03-05T00:51:26.622Z,8.44
2023-03-05T00:53:53.527Z,8.43
2023-03-05T00:56:20.560Z,8.44
2023-03-05T00:58:47.627Z,8.45
2023-03-05T01:01:14.686Z,8.47
2023-03-05T01:03:41.671Z,8.47
2023-03-05T01:06:11.735Z,8.47
2023-03-05T01:08:39.249Z,8.49
2023-03-05T01:11:06.932Z,8.51
2023-03-05T01:13:33.796Z,8.52
2023-03-05T01:16:01.091Z,8.55
2023-03-05T01:18:27.820Z,8.58
2023-03-05T01:20:54.484Z,8.60
2023-03-05T01:23:21.169Z,8.60
2023-03-05T01:25:57.358Z,8.57
2023-03-05T01:28:24.515Z,8.53
2023-03-05T01:30:51.313Z,8.47
2023-03-05T01:33:18.338Z,8.36
2023-03-05T01:35:49.151Z,8.23
2023-03-05T01:38:16.736Z,8.14
2023-03-05T01:40:43.966Z,8.10
2023-03-05T01:43:12.193Z,8.11
2023-03-05T01:46:00.107Z,8.15
2023-03-05T01:48:27.639Z,8.20
2023-03-05T01:50:54.521Z,8.21
2023-03-05T01:53:21.218Z,8.20
2023-03-05T01:55:48.048Z,8.21
2023-03-05T01:58:14.856Z,8.23
2023-03-05T02:00:46.182Z,8.23
2023-03-05T02:03:13.706Z,8.22
2023-03-05T02:05:43.351Z,8.21
2023-03-05T02:08:12.526Z,8.19
2023-03-05T02:10:45.122Z,8.17
2023-03-05T02:13:15.238Z,8.18
2023-03-05T02:15:42.628Z,8.18
2023-03-05T02:18:10.191Z,8.17
2023-03-05T02:20:46.609Z,8.15
2023-03-05T02:23:14.360Z,8.15
2023-03-05T02:25:41.382Z,8.14
2023-03-05T02:28:23.142Z,8.13
2023-03-05T02:30:49.965Z,8.12
2023-03-05T02:33:18.114Z,8.08
2023-03-05T02:35:46.400Z,7.99
2023-03-05T02:38:15.407Z,7.91
2023-03-05T02:40:42.470Z,7.83
2023-03-05T02:43:09.837Z,7.78
2023-03-05T02:45:37.591Z,7.74
2023-03-05T02:48:04.625Z,7.73
2023-03-05T02:50:32.167Z,7.71
2023-03-05T02:52:59.057Z,7.68
2023-03-05T02:55:25.966Z,7.63
2023-03-05T02:57:52.708Z,7.59
2023-03-05T03:00:19.688Z,7.58
2023-03-05T03:02:46.371Z,7.58
2023-03-05T03:05:13.127Z,7.55
2023-03-05T03:07:39.831Z,7.54
2023-03-05T03:10:07.217Z,7.53
2023-03-05T03:12:41.831Z,7.50
2023-03-05T03:15:09.740Z,7.46
2023-03-05T03:17:37.404Z,7.42
2023-03-05T03:20:06.157Z,7.38
2023-03-05T03:22:33.197Z,7.31
2023-03-05T03:25:01.138Z,7.26
2023-03-05T03:27:27.831Z,7.21
2023-03-05T03:29:54.426Z,7.17
2023-03-05T03:32:21.193Z,7.11
2023-03-05T03:34:48.343Z,7.06
2023-03-05T03:37:15.357Z,7.04
2023-03-05T03:39:42.104Z,6.99
2023-03-05T03:42:08.777Z,6.95
2023-03-05T03:44:35.392Z,6.93
2023-03-05T03:47:02.154Z,6.93
2023-03-05T03:49:28.916Z,6.95
2023-03-05T03:51:55.674Z,6.94
2023-03-05T03:54:22.475Z,6.93
2023-03-05T03:56:49.364Z,6.93
2023-03-05T03:59:16.121Z,6.94
2023-03-05T04:01:43.205Z,7.00
2023-03-05T04:04:12.422Z,7.06
2023-03-05T04:06:39.594Z,7.08
2023-03-05T04:09:08.221Z,7.12
2023-03-05T04:11:36.403Z,7.15
2023-03-05T04:14:04.029Z,7.20
2023-03-05T04:16:31.239Z,7.21
2023-03-05T04:18:57.962Z,7.20
2023-03-05T04:21:24.631Z,7.18
2023-03-05T04:23:51.214Z,7.17
2023-03-05T04:26:17.892Z,7.14
2023-03-05T04:28:48.382Z,7.12
2023-03-05T04:31:15.222Z,7.11
2023-03-05T04:33:42.043Z,7.11
2023-03-05T04:36:09.146Z,7.10
2023-03-05T04:38:35.761Z,7.11
2023-03-05T04:41:02.342Z,7.11
2023-03-05T04:43:29.019Z,7.08
2023-03-05T04:45:56.065Z,7.08
2023-03-05T04:48:22.884Z,7.09
2023-03-05T04:50:49.678Z,7.10
2023-03-05T04:53:16.421Z,7.08
2023-03-05T04:55:43.911Z,7.06
2023-03-05T04:58:10.691Z,7.04
2023-03-05T05:00:37.393Z,7.03
2023-03-05T05:03:04.250Z,7.04
2023-03-05T05:05:30.985Z,7.11
2023-03-05T05:07:58.717Z,7.18
2023-03-05T05:10:26.773Z,7.24
2023-03-05T05:12:53.839Z,7.26
2023-03-05T05:15:20.847Z,7.25
2023-03-05T05:17:47.766Z,7.24
2023-03-05T05:20:16.632Z,7.23
2023-03-05T05:22:44.000Z,7.21
2023-03-05T05:25:11.071Z,7.19
2023-03-05T05:27:39.707Z,7.16
2023-03-05T05:30:07.709Z,7.14
2023-03-05T05:32:34.555Z,7.12
2023-03-05T05:35:01.687Z,7.09
2023-03-05T05:37:29.969Z,7.09
2023-03-05T05:39:56.657Z,7.10
2023-03-05T05:42:24.301Z,7.11
2023-03-05T05:44:51.251Z,7.11
2023-03-05T05:47:18.791Z,7.13
2023-03-05T05:49:45.733Z,7.14
2023-03-05T05:52:13.295Z,7.13
2023-03-05T05:54:40.169Z,7.09
2023-03-05T05:57:07.679Z,7.01
2023-03-05T05:59:34.569Z,6.91
2023-03-05T06:02:01.325Z,6.82
2023-03-05T06:04:28.020Z,6.75
2023-03-05T06:06:54.679Z,6.70
2023-03-05T06:09:21.384Z,6.66
2023-03-05T06:11:48.039Z,6.67
2023-03-05T06:14:14.769Z,6.69
2023-03-05T06:16:41.703Z,6.71
2023-03-05T06:19:11.681Z,6.73
2023-03-05T06:21:38.961Z,6.76
2023-03-05T06:24:06.229Z,6.83
2023-03-05T06:26:33.452Z,6.88
2023-03-05T06:29:00.401Z,6.93
2023-03-05T06:31:28.739Z,6.96
2023-03-05T06:33:58.149Z,6.99
2023-03-05T06:36:25.767Z,7.02
2023-03-05T06:38:53.646Z,7.06
2023-03-05T06:41:23.334Z,7.09
2023-03-05T06:43:50.305Z,7.14
2023-03-05T06:46:25.723Z,7.17
2023-03-05T06:48:55.693Z,7.20
2023-03-05T06:51:25.565Z,7.26
2023-03-05T06:53:54.150Z,7.34
2023-03-05T06:56:21.251Z,7.42
2023-03-05T06:58:50.631Z,7.48
2023-03-05T07:01:17.638Z,7.54
2023-03-05T07:03:44.867Z,7.61
2023-03-05T07:06:14.094Z,7.70
2023-03-05T07:08:40.788Z,7.81
2023-03-05T07:11:16.911Z,7.92
2023-03-05T07:13:43.972Z,8.06
2023-03-05T07:16:15.551Z,8.17
2023-03-05T07:18:42.350Z,8.31
2023-03-05T07:21:13.081Z,8.46
2023-03-05T07:23:39.827Z,8.58
2023-03-05T07:26:07.105Z,8.68
2023-03-05T07:28:34.803Z,8.76
2023-03-05T07:31:04.933Z,8.81
2023-03-05T07:33:32.381Z,8.84
2023-03-05T07:35:59.599Z,8.84
2023-03-05T07:38:26.335Z,8.84
2023-03-05T07:40:53.248Z,8.85
2023-03-05T07:43:19.865Z,8.88
2023-03-05T07:45:46.564Z,8.92
2023-03-05T07:48:16.753Z,8.95
2023-03-05T07:50:44.294Z,8.99
2023-03-05T07:53:11.540Z,9.03
2023-03-05T07:55:47.724Z,9.09
2023-03-05T07:58:14.646Z,9.16
2023-03-05T08:00:41.326Z,9.23
2023-03-05T08:03:08.261Z,9.32
2023-03-05T08:05:35.182Z,9.41
2023-03-05T08:08:01.818Z,9.51
2023-03-05T08:10:28.358Z,9.61
2023-03-05T08:12:55.088Z,9.71
2023-03-05T08:15:21.827Z,9.82
2023-03-05T08:17:48.607Z,9.92
2023-03-05T08:20:15.306Z,9.98
2023-03-05T08:22:42.048Z,10.05
2023-03-05T08:25:10.045Z,10.18
2023-03-05T08:27:41.048Z,10.32
2023-03-05T08:30:10.891Z,10.46
2023-03-05T08:32:37.772Z,10.60
2023-03-05T08:35:06.739Z,10.72
2023-03-05T08:37:33.721Z,10.84
2023-03-05T08:40:00.500Z,10.96
2023-03-05T08:42:27.289Z,11.12
2023-03-05T08:44:54.039Z,11.29
2023-03-05T08:47:20.782Z,11.43
2023-03-05T08:49:47.604Z,11.58
2023-03-05T08:52:14.310Z,11.70
2023-03-05T08:54:41.042Z,11.80
2023-03-05T08:57:08.585Z,11.88
2023-03-05T08:59:35.888Z,11.97
2023-03-05T09:02:03.219Z,12.06
2023-03-05T09:04:30.056Z,12.17
2023-03-05T09:06:57.583Z,12.26
2023-03-05T09:09:24.809Z,12.36
2023-03-05T09:11:52.087Z,12.43
2023-03-05T09:14:19.014Z,12.50
2023-03-05T09:16:45.883Z,12.56
2023-03-05T09:19:15.352Z,12.63
2023-03-05T09:21:42.486Z,12.68
2023-03-05T09:24:09.300Z,12.74
2023-03-05T09:26:36.015Z,12.80
2023-03-05T09:29:03.511Z,12.87
2023-03-05T09:31:30.311Z,12.92
2023-03-05T09:33:57.059Z,12.99
2023-03-05T09:36:29.534Z,13.06
2023-03-05T09:38:56.485Z,13.12
2023-03-05T09:41:32.491Z,13.17
2023-03-05T09:43:59.477Z,13.25
2023-03-05T09:46:31.916Z,13.32
2023-03-05T09:49:12.300Z,13.36
2023-03-05T09:51:41.464Z,13.39
2023-03-05T09:54:17.517Z,13.44
2023-03-05T09:57:05.670Z,13.51
2023-03-05T10:00:02.011Z,13.59
2023-03-05T10:02:48.983Z,13.70
2023-03-05T10:05:26.280Z,13.74
2023-03-05T10:08:03.842Z,13.82
2023-03-05T10:10:42.154Z,13.91
2023-03-05T10:13:32.486Z,14.00
2023-03-05T10:16:42.320Z,14.11
2023-03-05T10:19:36.842Z,14.23
2023-03-05T10:22:31.037Z,14.27
2023-03-05T10:25:09.757Z,14.30
2023-03-05T10:27:43.452Z,14.35
2023-03-05T10:30:19.802Z,14.44
2023-03-05T10:32:57.025Z,14.52
2023-03-05T10:35:40.906Z,14.60
2023-03-05T10:38:33.201Z,14.65
2023-03-05T10:41:28.382Z,14.71
2023-03-05T10:44:04.212Z,14.78
2023-03-05T10:46:37.678Z,14.89
2023-03-05T10:49:21.221Z,15.00
2023-03-05T10:51:53.341Z,15.16
2023-03-05T10:54:30.348Z,15.26
2023-03-05T10:57:09.802Z,15.31
2023-03-05T10:59:36.873Z,15.40
2023-03-05T11:02:10.205Z,15.45
2023-03-05T11:04:39.790Z,15.53
2023-03-05T11:07:08.837Z,15.58
2023-03-05T11:09:35.642Z,15.65
2023-03-05T11:12:10.459Z,15.73
2023-03-05T11:14:40.512Z,15.80
2023-03-05T11:17:30.221Z,15.86
2023-03-05T11:19:58.734Z,15.94
2023-03-05T11:22:26.023Z,16.02
2023-03-05T11:25:15.949Z,16.06
2023-03-05T11:27:54.571Z,16.04
2023-03-05T11:30:26.271Z,16.10
2023-03-05T11:33:20.527Z,16.15
2023-03-05T11:35:49.399Z,16.17
2023-03-05T11:38:26.447Z,16.20
2023-03-05T11:40:56.270Z,16.23
2023-03-05T11:43:26.021Z,16.23
2023-03-05T11:46:05.497Z,16.22
2023-03-05T11:48:36.669Z,16.24
2023-03-05T11:51:13.481Z,16.29
2023-03-05T11:53:40.450Z,16.36
2023-03-05T11:56:22.320Z,16.42
2023-03-05T11:59:02.926Z,16.49
2023-03-05T12:01:34.569Z,16.53
2023-03-05T12:04:01.719Z,16.54
2023-03-05T12:06:34.947Z,16.53
2023-03-05T12:09:37.863Z,16.54
2023-03-05T12:12:18.651Z,16.54
2023-03-05T12:15:12.853Z,16.57
2023-03-05T12:17:50.737Z,16.61
2023-03-05T12:20:50.004Z,16.63
2023-03-05T12:23:21.738Z,16.69
2023-03-05T12:25:57.898Z,16.68
2023-03-05T12:28:37.062Z,16.64
2023-03-05T12:31:40.436Z,16.63
2023-03-05T12:34:35.151Z,16.66
2023-03-05T12:37:01.876Z,16.65
2023-03-05T12:39:41.785Z,16.62
2023-03-05T12:42:30.256Z,16.62
2023-03-05T12:45:16.185Z,16.63
2023-03-05T12:47:45.147Z,16.64
2023-03-05T12:50:26.907Z,16.64
2023-03-05T12:52:54.106Z,16.63
2023-03-05T12:55:45.707Z,16.58
2023-03-05T12:58:32.587Z,16.55
2023-03-05T13:01:03.211Z,16.50
2023-03-05T13:03:37.556Z,16.46
2023-03-05T13:06:06.730Z,16.48
2023-03-05T13:08:36.199Z,16.49
2023-03-05T13:11:06.777Z,16.51
2023-03-05T13:13:37.441Z,16.51
2023-03-05T13:16:05.024Z,16.50
2023-03-05T13:18:32.999Z,16.55
2023-03-05T13:21:13.001Z,16.59
2023-03-05T13:24:00.006Z,16.58
2023-03-05T13:26:29.087Z,16.60
2023-03-05T13:29:19.360Z,16.57
2023-03-05T13:31:48.989Z,16.55
2023-03-05T13:34:47.379Z,16.57
2023-03-05T13:37:33.983Z,16.59
2023-03-05T13:40:20.893Z,16.57
2023-03-05T13:42:49.505Z,16.57
2023-03-05T13:45:32.377Z,16.58
2023-03-05T13:48:02.055Z,16.58
2023-03-05T13:50:33.412Z,16.60
2023-03-05T13:53:26.079Z,16.57
2023-03-05T13:55:57.464Z,16.52
2023-03-05T13:58:52.544Z,16.47
2023-03-05T14:01:30.125Z,16.41
2023-03-05T14:04:16.605Z,16.35
2023-03-05T14:07:03.612Z,16.33
2023-03-05T14:09:38.946Z,16.33
2023-03-05T14:12:33.584Z,16.37
2023-03-05T14:15:02.325Z,16.43
2023-03-05T14:17:30.656Z,16.46
2023-03-05T14:20:09.778Z,16.44
2023-03-05T14:22:38.710Z,16.42
2023-03-05T14:25:07.265Z,16.41
2023-03-05T14:27:36.650Z,16.37
2023-03-05T14:30:05.537Z,16.33
2023-03-05T14:32:36.038Z,16.30
2023-03-05T14:35:06.159Z,16.29
2023-03-05T14:37:36.834Z,16.33
2023-03-05T14:40:07.226Z,16.29
2023-03-05T14:42:58.604Z,16.22
2023-03-05T14:45:38.083Z,16.14
2023-03-05T14:48:16.373Z,16.13
2023-03-05T14:50:46.786Z,16.09
2023-03-05T14:53:20.408Z,16.08
2023-03-05T14:55:51.667Z,16.07
2023-03-05T14:58:21.925Z,16.04
2023-03-05T15:00:51.198Z,16.04
2023-03-05T15:03:19.958Z,16.01
2023-03-05T15:05:51.108Z,15.98
2023-03-05T15:08:25.740Z,15.99
2023-03-05T15:10:53.111Z,15.97
2023-03-05T15:13:19.940Z,15.93
2023-03-05T15:15:49.128Z,15.87
2023-03-05T15:18:19.076Z,15.83
2023-03-05T15:20:48.839Z,15.78
2023-03-05T15:23:17.279Z,15.74
2023-03-05T15:25:44.302Z,15.70
2023-03-05T15:28:11.181Z,15.68
2023-03-05T15:30:41.804Z,15.66
2023-03-05T15:33:11.988Z,15.62
2023-03-05T15:35:39.120Z,15.60
2023-03-05T15:38:06.337Z,15.56
2023-03-05T15:40:33.074Z,15.54
2023-03-05T15:43:00.842Z,15.50
2023-03-05T15:45:28.080Z,15.44
2023-03-05T15:47:55.086Z,15.41
2023-03-05T15:50:22.451Z,15.36
2023-03-05T15:52:49.754Z,15.31
2023-03-05T15:55:18.582Z,15.28
2023-03-05T15:57:48.927Z,15.24
2023-03-05T16:00:18.724Z,15.17
2023-03-05T16:02:45.490Z,15.13
2023-03-05T16:05:12.223Z,15.05
2023-03-05T16:07:42.266Z,14.97
2023-03-05T16:10:13.981Z,14.91
2023-03-05T16:12:43.066Z,14.84
2023-03-05T16:15:17.377Z,14.78
2023-03-05T16:17:47.560Z,14.72
2023-03-05T16:20:15.771Z,14.66
2023-03-05T16:22:43.460Z,14.60
2023-03-05T16:25:10.540Z,14.53
2023-03-05T16:27:38.364Z,14.47
2023-03-05T16:30:06.339Z,14.41
2023-03-05T16:32:33.377Z,14.35
2023-03-05T16:35:00.140Z,14.30
2023-03-05T16:37:26.873Z,14.24
2023-03-05T16:39:57.665Z,14.18
2023-03-05T16:42:24.413Z,14.11
2023-03-05T16:44:51.940Z,14.07
2023-03-05T16:47:18.643Z,14.02
2023-03-05T16:49:45.251Z,13.97
2023-03-05T16:52:18.737Z,13.93
2023-03-05T16:54:46.848Z,13.87
2023-03-05T16:57:14.062Z,13.83
2023-03-05T16:59:40.962Z,13.79
2023-03-05T17:02:08.028Z,13.74
2023-03-05T17:04:34.991Z,13.71
2023-03-05T17:07:03.527Z,13.69
2023-03-05T17:09:30.601Z,13.67
2023-03-05T17:11:57.234Z,13.63
2023-03-05T17:14:24.185Z,13.59
2023-03-05T17:16:51.136Z,13.55
2023-03-05T17:19:18.384Z,13.49
2023-03-05T17:21:45.397Z,13.42
2023-03-05T17:24:12.193Z,13.36
2023-03-05T17:26:38.905Z,13.29
2023-03-05T17:29:06.957Z,13.23
2023-03-05T17:31:36.794Z,13.14
2023-03-05T17:34:04.275Z,13.05
2023-03-05T17:36:32.716Z,12.93
2023-03-05T17:38:59.338Z,12.80
2023-03-05T17:41:26.042Z,12.67
2023-03-05T17:43:52.898Z,12.55
2023-03-05T17:46:19.635Z,12.44
2023-03-05T17:48:46.370Z,12.36
2023-03-05T17:51:16.406Z,12.28
2023-03-05T17:53:43.871Z,12.22
2023-03-05T17:56:12.935Z,12.15
2023-03-05T17:58:40.923Z,12.09
2023-03-05T18:01:08.103Z,12.03
2023-03-05T18:03:36.519Z,11.96
2023-03-05T18:06:03.883Z,11.90
2023-03-05T18:08:30.904Z,11.84
2023-03-05T18:10:57.651Z,11.79
2023-03-05T18:13:26.118Z,11.73
2023-03-05T18:15:53.161Z,11.66
2023-03-05T18:18:19.931Z,11.62
2023-03-05T18:20:48.727Z,11.58
2023-03-05T18:23:16.931Z,11.51
2023-03-05T18:25:44.482Z,11.45
2023-03-05T18:28:13.550Z,11.39
2023-03-05T18:30:42.092Z,11.34
2023-03-05T18:33:18.669Z,11.30
2023-03-05T18:35:46.007Z,11.26
2023-03-05T18:38:12.847Z,11.22
2023-03-05T18:40:39.926Z,11.18
2023-03-05T18:43:06.666Z,11.10
2023-03-05T18:45:34.287Z,11.04
2023-03-05T18:48:01.083Z,11.00
2023-03-05T18:50:28.277Z,10.98
2023-03-05T18:52:55.425Z,10.95
2023-03-05T18:55:27.880Z,10.92
2023-03-05T18:57:55.439Z,10.90
2023-03-05T19:00:29.143Z,10.87
2023-03-05T19:02:56.645Z,10.85
2023-03-05T19:05:27.964Z,10.83
2023-03-05T19:07:55.614Z,10.80
2023-03-05T19:10:23.204Z,10.77
2023-03-05T19:13:23.336Z,10.74
2023-03-05T19:15:58.518Z,10.72
2023-03-05T19:18:36.086Z,10.69
2023-03-05T19:21:07.185Z,10.66
2023-03-05T19:23:33.836Z,10.64
2023-03-05T19:26:02.292Z,10.61
2023-03-05T19:28:30.309Z,10.57
2023-03-05T19:30:57.175Z,10.51
2023-03-05T19:33:25.041Z,10.46
2023-03-05T19:35:52.108Z,10.40
2023-03-05T19:38:18.854Z,10.37
2023-03-05T19:40:45.592Z,10.36
2023-03-05T19:43:12.302Z,10.36
2023-03-05T19:45:39.206Z,10.33
2023-03-05T19:48:06.139Z,10.32
2023-03-05T19:50:34.409Z,10.31
2023-03-05T19:53:01.638Z,10.35
2023-03-05T19:55:28.481Z,10.42
2023-03-05T19:57:55.298Z,10.47
2023-03-05T20:00:22.404Z,10.54
2023-03-05T20:02:49.089Z,10.61
2023-03-05T20:05:15.954Z,10.66
2023-03-05T20:07:42.629Z,10.71
2023-03-05T20:10:10.363Z,10.75
2023-03-05T20:12:39.253Z,10.78
2023-03-05T20:15:06.532Z,10.81
2023-03-05T20:17:33.248Z,10.84
2023-03-05T20:20:00.284Z,10.87
2023-03-05T20:22:27.166Z,10.88
2023-03-05T20:24:53.930Z,10.89
2023-03-05T20:27:20.739Z,10.89
2023-03-05T20:29:47.525Z,10.89
2023-03-05T20:32:15.286Z,10.89
2023-03-05T20:34:42.121Z,10.90
2023-03-05T20:37:08.950Z,10.91
2023-03-05T20:39:35.681Z,10.93
2023-03-05T20:42:02.378Z,10.94
2023-03-05T20:44:29.228Z,10.95
2023-03-05T20:47:37.728Z,10.97
2023-03-05T20:50:04.848Z,10.97
2023-03-05T20:52:31.655Z,10.99
2023-03-05T20:54:59.157Z,10.97
2023-03-05T20:57:25.890Z,10.98
2023-03-05T20:59:52.589Z,10.99
2023-03-05T21:02:19.388Z,11.01
2023-03-05T21:04:46.224Z,11.01
2023-03-05T21:07:12.940Z,11.02
2023-03-05T21:09:39.622Z,11.04
2023-03-05T21:12:08.224Z,11.10
2023-03-05T21:14:38.090Z,11.17
2023-03-05T21:17:05.318Z,11.24
2023-03-05T21:19:33.769Z,11.31
2023-03-05T21:22:00.743Z,11.35
2023-03-05T21:25:04.419Z,11.40
2023-03-05T21:27:36.025Z,11.47
2023-03-05T21:30:02.972Z,11.49
2023-03-05T21:32:29.747Z,11.51
2023-03-05T21:34:56.824Z,11.53
2023-03-05T21:37:24.237Z,11.54
2023-03-05T21:39:50.917Z,11.56
2023-03-05T21:42:17.619Z,11.55
2023-03-05T21:44:44.370Z,11.50
2023-03-05T21:47:11.093Z,11.42
2023-03-05T21:49:37.798Z,11.32
2023-03-05T21:52:11.900Z,11.23
2023-03-05T21:54:39.888Z,11.17
2023-03-05T21:57:08.946Z,11.12
2023-03-05T21:59:35.711Z,11.07
2023-03-05T22:02:02.390Z,11.03
2023-03-05T22:04:29.038Z,10.99
2023-03-05T22:06:56.769Z,10.95
2023-03-05T22:09:23.430Z,10.91
2023-03-05T22:11:50.105Z,10.88
2023-03-05T22:14:17.680Z,10.85
2023-03-05T22:16:44.910Z,10.82
2023-03-05T22:19:11.725Z,10.80
2023-03-05T22:21:38.351Z,10.78
2023-03-05T22:24:05.168Z,10.76
2023-03-05T22:26:37.878Z,10.73
2023-03-05T22:29:06.338Z,10.70
2023-03-05T22:31:33.065Z,10.66
2023-03-05T22:33:59.798Z,10.62
2023-03-05T22:36:26.484Z,10.56
2023-03-05T22:38:53.367Z,10.52
2023-03-05T22:41:21.188Z,10.49
2023-03-05T22:43:49.866Z,10.47
2023-03-05T22:46:23.153Z,10.42
2023-03-05T22:48:51.000Z,10.38
2023-03-05T22:51:18.786Z,10.33
2023-03-05T22:53:46.306Z,10.29
2023-03-05T22:56:16.171Z,10.23
2023-03-05T22:58:43.326Z,10.18
2023-03-05T23:01:21.876Z,10.14
2023-03-05T23:04:12.132Z,10.09
2023-03-05T23:06:59.429Z,10.00
2023-03-05T23:09:26.273Z,9.94
2023-03-05T23:11:52.944Z,9.88
2023-03-05T23:14:19.603Z,9.82
2023-03-05T23:16:46.315Z,9.76
2023-03-05T23:19:13.075Z,9.73
2023-03-05T23:21:39.738Z,9.73
2023-03-05T23:24:07.082Z,9.75
2023-03-05T23:26:33.799Z,9.74
2023-03-05T23:29:00.585Z,9.70
2023-03-05T23:31:27.257Z,9.68
2023-03-05T23:33:54.003Z,9.67
2023-03-05T23:36:24.635Z,9.64
2023-03-05T23:38:57.623Z,9.60
2023-03-05T23:41:24.455Z,9.57
2023-03-05T23:43:51.058Z,9.54
2023-03-05T23:46:17.840Z,9.47
2023-03-05T23:48:44.565Z,9.41
2023-03-05T23:51:11.492Z,9.38
2023-03-05T23:53:38.178Z,9.38
2023-03-05T23:56:13.667Z,9.36
2023-03-05T23:58:40.304Z,9.33
